createdAt,value
2023-04-15T00:04:38.042Z,15.7
2023-04-15T00:09:37.987Z,15.7
2023-04-15T00:14:38.181Z,16
2023-04-15T00:19:39.093Z,16
2023-04-15T00:24:38.176Z,16.3
2023-04-15T00:29:38.106Z,16.3
2023-04-15T00:34:38.122Z,16.3
2023-04-15T00:39:37.989Z,16.3
2023-04-15T00:44:38.039Z,16.3
2023-04-15T00:49:38.096Z,16.3
2023-04-15T00:54:37.963Z,16.3
2023-04-15T00:59:38.029Z,15.6
2023-04-15T01:04:38.219Z,15.6
2023-04-15T01:09:37.984Z,15.6
2023-04-15T01:14:38.097Z,15.1
2023-04-15T01:19:38.022Z,15
2023-04-15T01:24:38.013Z,14.6
2023-04-15T01:29:38.033Z,14.4
2023-04-15T01:34:38.038Z,14.4
2023-04-15T01:39:38.006Z,14.2
2023-04-15T01:44:38.094Z,14.4
2023-04-15T01:49:37.993Z,14.4
2023-04-15T01:54:38.068Z,14.4
2023-04-15T01:59:37.970Z,14.5
2023-04-15T02:04:38.015Z,14.5
2023-04-15T02:09:38.010Z,14.3
2023-04-15T02:14:38.077Z,14.3
2023-04-15T02:19:38.042Z,14.1
2023-04-15T02:24:40.558Z,14.1
2023-04-15T02:29:37.996Z,14.1
2023-04-15T02:34:38.024Z,13.5
2023-04-15T02:39:38.011Z,12.7
2023-04-15T02:44:37.965Z,12.7
2023-04-15T02:49:38.037Z,12.7
2023-04-15T02:54:38.030Z,12.9
2023-04-15T02:59:38.005Z,12.4
2023-04-15T03:04:37.977Z,12.9
2023-04-15T03:09:38.011Z,13.4
2023-04-15T03:14:38.237Z,13.6
2023-04-15T03:19:38.026Z,13.4
2023-04-15T03:24:38.218Z,13.6
2023-04-15T03:29:38.023Z,13.6
2023-04-15T03:34:38.017Z,14.5
2023-04-15T03:39:38.002Z,13.6
2023-04-15T03:44:37.994Z,13.2
2023-04-15T03:59:37.997Z,12.2
2023-04-15T04:04:38.132Z,12.15
2023-04-15T04:09:37.985Z,12.2
2023-04-15T04:14:38.054Z,12.8
2023-04-15T04:19:37.933Z,12.4
2023-04-15T04:24:37.971Z,12.3
2023-04-15T04:29:38.109Z,12.4
2023-04-15T04:34:38.069Z,13
2023-04-15T04:39:37.983Z,13
2023-04-15T04:44:40.829Z,13
2023-04-15T04:49:38.201Z,13
2023-04-15T04:54:38.541Z,13
2023-04-15T04:59:38.123Z,13.1
2023-04-15T05:04:38.050Z,13.1
2023-04-15T05:09:38.508Z,13
2023-04-15T05:14:38.152Z,13
2023-04-15T05:19:37.984Z,12.2
2023-04-15T05:24:38.102Z,12.2
2023-04-15T05:29:38.070Z,12.2
2023-04-15T05:34:38.008Z,11.9
2023-04-15T05:39:38.051Z,11.8
2023-04-15T05:44:38.043Z,11.9
2023-04-15T05:49:38.078Z,12.4
2023-04-15T05:54:38.950Z,12.4
2023-04-15T05:59:38.182Z,13.2
2023-04-15T06:04:38.153Z,13.2
2023-04-15T06:09:38.157Z,13.5
2023-04-15T06:14:38.130Z,13.6
2023-04-15T06:19:38.157Z,13.7
2023-04-15T06:24:38.116Z,14.2
2023-04-15T06:29:38.072Z,15.7
2023-04-15T06:34:38.122Z,15.6
2023-04-15T06:39:38.135Z,15.6
2023-04-15T06:44:38.167Z,15.6
2023-04-15T06:49:38.001Z,14.8
2023-04-15T06:54:38.131Z,14.8
2023-04-15T06:59:38.100Z,14.4
2023-04-15T07:04:38.247Z,14.4
2023-04-15T07:09:38.298Z,14.4
2023-04-15T07:14:38.120Z,14.4
2023-04-15T07:19:38.111Z,14.8
2023-04-15T07:24:38.221Z,14.4
2023-04-15T07:29:38.232Z,16.3
2023-04-15T07:34:38.227Z,16.3
2023-04-15T07:39:38.114Z,15.1
2023-04-15T07:44:38.202Z,16.3
2023-04-15T07:49:38.182Z,15.1
2023-04-15T07:54:38.262Z,14.9
2023-04-15T07:59:38.096Z,15.1
2023-04-15T08:04:38.268Z,14.9
2023-04-15T08:09:38.092Z,14.2
2023-04-15T08:14:38.265Z,13.8
2023-04-15T08:19:38.144Z,12.4
2023-04-15T08:24:41.173Z,12.4
2023-04-15T08:29:38.162Z,12.3
2023-04-15T08:34:38.503Z,12.1
2023-04-15T08:39:38.067Z,11.5
2023-04-15T08:44:38.248Z,11.5
2023-04-15T08:49:38.116Z,12.1
2023-04-15T08:54:41.225Z,11.4
2023-04-15T08:59:38.098Z,10.4
2023-04-15T09:04:38.293Z,9.7
2023-04-15T09:09:38.115Z,9.3
2023-04-15T09:14:38.070Z,9.7
2023-04-15T09:19:38.163Z,9.3
2023-04-15T09:24:38.105Z,8.9
2023-04-15T09:29:38.225Z,8.4
2023-04-15T09:34:38.092Z,6.2
2023-04-15T09:39:38.105Z,5.6
2023-04-15T09:44:38.235Z,4.6
2023-04-15T09:49:38.116Z,4.6
2023-04-15T09:54:41.939Z,4.5
2023-04-15T09:59:38.111Z,4.5
2023-04-15T10:04:38.204Z,4.5
2023-04-15T10:09:38.067Z,4.2
2023-04-15T10:14:38.314Z,3.7
2023-04-15T10:19:38.121Z,3.7
2023-04-15T10:24:38.352Z,3.7
2023-04-15T10:29:38.116Z,3.7
2023-04-15T10:34:38.184Z,4.1
2023-04-15T10:39:38.178Z,4.1
2023-04-15T10:44:38.234Z,4.3
2023-04-15T10:49:38.114Z,4.3
2023-04-15T10:54:38.564Z,4.3
2023-04-15T10:59:38.333Z,5
2023-04-15T11:04:38.982Z,5.4
2023-04-15T11:09:38.176Z,5.4
2023-04-15T11:14:38.297Z,5.6
2023-04-15T11:19:38.192Z,5.6
2023-04-15T11:24:38.277Z,5.6
2023-04-15T11:29:38.254Z,5.6
2023-04-15T11:34:38.114Z,5.6
2023-04-15T11:39:38.177Z,5.6
2023-04-15T11:44:38.256Z,6.1
2023-04-15T11:49:38.175Z,6
2023-04-15T11:54:38.448Z,6.1
2023-04-15T11:59:45.101Z,6.5
2023-04-15T12:04:38.399Z,6.7
2023-04-15T12:09:38.063Z,6.7
2023-04-15T12:14:38.107Z,6.7
2023-04-15T12:19:38.075Z,6.7
2023-04-15T12:24:38.170Z,7.7
2023-04-15T12:29:38.167Z,7.9
2023-04-15T12:34:38.135Z,6.8
2023-04-15T12:39:38.102Z,6.8
2023-04-15T12:44:38.213Z,6.8
2023-04-15T12:49:38.124Z,6.8
2023-04-15T12:54:39.355Z,7.5
2023-04-15T12:59:38.203Z,7.5
2023-04-15T13:04:38.133Z,6.8
2023-04-15T13:09:38.104Z,7.5
2023-04-15T13:14:38.198Z,6.9
2023-04-15T13:19:38.182Z,6.9
2023-04-15T13:24:38.171Z,7.5
2023-04-15T13:29:38.132Z,6.9
2023-04-15T13:39:38.720Z,5.6
2023-04-15T13:44:38.058Z,5.75
2023-04-15T13:49:38.076Z,5.9
2023-04-15T13:54:39.128Z,5.75
2023-04-15T13:59:38.130Z,5.9
2023-04-15T14:04:38.111Z,5.9
2023-04-15T14:09:43.209Z,5.9
2023-04-15T14:14:38.123Z,5.9
2023-04-15T14:19:38.064Z,6.2
2023-04-15T14:24:38.117Z,5.9
2023-04-15T14:29:38.052Z,6.2
2023-04-15T14:34:38.135Z,6.2
2023-04-15T14:39:38.120Z,6.2
2023-04-15T14:44:38.291Z,6.2
2023-04-15T14:49:38.059Z,6.6
2023-04-15T14:54:38.135Z,6.6
2023-04-15T14:59:38.076Z,6.6
2023-04-15T15:04:38.195Z,6.6
2023-04-15T15:09:38.248Z,6.6
2023-04-15T15:14:38.166Z,6.3
2023-04-15T15:19:38.133Z,6.6
2023-04-15T15:24:38.170Z,6.7
2023-04-15T15:29:38.132Z,6.8
2023-04-15T15:34:38.117Z,6.9
2023-04-15T15:39:38.364Z,6.9
2023-04-15T15:44:38.279Z,6.8
2023-04-15T15:49:38.119Z,6.8
2023-04-15T15:54:38.150Z,6.8
2023-04-15T15:59:38.256Z,6.8
2023-04-15T16:04:38.356Z,6.9
2023-04-15T16:09:38.340Z,7
2023-04-15T16:14:38.170Z,7.6
2023-04-15T16:19:38.110Z,8.6
2023-04-15T16:24:38.207Z,10.4
2023-04-15T16:29:38.255Z,10.4
2023-04-15T16:34:38.162Z,10.5
2023-04-15T16:39:39.692Z,11.6
2023-04-15T16:44:38.186Z,12.5
2023-04-15T16:49:38.059Z,14.1
2023-04-15T16:54:38.771Z,14.6
2023-04-15T16:59:38.174Z,16.1
2023-04-15T17:04:38.419Z,16.1
2023-04-15T17:09:38.088Z,16.1
2023-04-15T17:14:38.215Z,23
2023-04-15T17:19:38.084Z,18.7
2023-04-15T17:24:38.213Z,16.1
2023-04-15T17:29:38.147Z,16.1
2023-04-15T17:34:49.210Z,16.6
2023-04-15T17:39:38.102Z,17.3
2023-04-15T17:44:38.150Z,17.3
2023-04-15T17:49:38.129Z,17.3
2023-04-15T17:54:38.177Z,17.3
2023-04-15T17:59:38.094Z,17.4
2023-04-15T18:04:38.199Z,17.5
2023-04-15T18:09:38.154Z,17.4
2023-04-15T18:14:38.132Z,17.5
2023-04-15T18:19:38.070Z,17.6
2023-04-15T18:24:38.157Z,18
2023-04-15T18:29:38.092Z,18
2023-04-15T18:34:38.130Z,19.3
2023-04-15T18:39:38.241Z,19.3
2023-04-15T18:44:38.618Z,19.4
2023-04-15T18:49:45.883Z,19.5
2023-04-15T18:54:38.204Z,19.3
2023-04-15T18:59:38.097Z,19.6
2023-04-15T19:04:38.544Z,19.3
2023-04-15T19:09:39.196Z,18.4
2023-04-15T19:14:38.116Z,18.3
2023-04-15T19:19:38.103Z,16.4
2023-04-15T19:24:38.180Z,16.4
2023-04-15T19:29:38.354Z,15.9
2023-04-15T19:34:38.147Z,15.9
2023-04-15T19:39:38.210Z,15.2
2023-04-15T19:44:39.076Z,15.2
2023-04-15T19:49:38.138Z,14.1
2023-04-15T19:54:38.140Z,13.9
2023-04-15T19:59:38.133Z,13.6
2023-04-15T20:04:38.187Z,13.1
2023-04-15T20:09:38.144Z,13.1
2023-04-15T20:14:38.182Z,13
2023-04-15T20:19:38.142Z,13.1
2023-04-15T20:24:38.141Z,13.1
2023-04-15T20:29:38.148Z,13.1
2023-04-15T20:34:38.143Z,13.5
2023-04-15T20:39:38.176Z,13.5
2023-04-15T20:44:38.208Z,13.1
2023-04-15T20:49:38.226Z,13.5
2023-04-15T20:54:38.202Z,13.5
2023-04-15T20:59:38.349Z,13.4
2023-04-15T21:04:39.275Z,13.5
2023-04-15T21:09:38.219Z,13.8
2023-04-15T21:14:38.308Z,14.9
2023-04-15T21:19:38.254Z,14.9
2023-04-15T21:24:38.320Z,14.9
2023-04-15T21:29:38.117Z,13.5
2023-04-15T21:34:38.140Z,14.2
2023-04-15T21:39:38.294Z,13.5
2023-04-15T21:44:38.358Z,13.5
2023-04-15T21:49:38.197Z,13.5
2023-04-15T21:54:38.232Z,13.8
2023-04-15T21:59:38.273Z,14.2
2023-04-15T22:04:38.262Z,15.7
2023-04-15T22:09:38.255Z,15.8
2023-04-15T22:14:38.343Z,15.9
2023-04-15T22:19:38.340Z,15.9
2023-04-15T22:24:41.369Z,16.6
2023-04-15T22:29:38.127Z,16.8
2023-04-15T22:34:38.365Z,17.2
2023-04-15T22:39:38.254Z,17.2
2023-04-15T22:44:38.322Z,18
2023-04-15T22:49:38.172Z,21.4
2023-04-15T22:54:38.222Z,21.6
2023-04-15T22:59:38.139Z,25.2
2023-04-15T23:09:38.299Z,22.8
2023-04-15T23:14:38.228Z,23.75
2023-04-15T23:19:38.144Z,23
2023-04-15T23:24:38.323Z,22.95
2023-04-15T23:29:38.196Z,23
2023-04-15T23:34:38.202Z,23.7
2023-04-15T23:39:38.264Z,24.4
2023-04-15T23:44:38.229Z,24.7
2023-04-15T23:49:38.159Z,25.4
2023-04-15T23:54:38.218Z,25.9
2023-04-15T23:59:38.152Z,26.2
